createdAt,value
2023-06-23T00:02:18.137Z,95.34
2023-06-23T00:04:46.774Z,95.35
2023-06-23T00:07:16.011Z,95.58
2023-06-23T00:09:44.755Z,95.85
2023-06-23T00:12:13.311Z,95.20
2023-06-23T00:14:43.461Z,95.14
2023-06-23T00:17:13.372Z,94.81
2023-06-23T00:19:41.911Z,95.05
2023-06-23T00:22:10.483Z,95.22
2023-06-23T00:24:39.010Z,94.98
2023-06-23T00:27:07.777Z,94.62
2023-06-23T00:29:36.358Z,94.46
2023-06-23T00:32:05.350Z,94.27
2023-06-23T00:34:34.962Z,94.01
2023-06-23T00:37:03.878Z,93.05
2023-06-23T00:39:32.435Z,93.09
2023-06-23T00:42:04.923Z,92.58
2023-06-23T00:44:34.430Z,92.90
2023-06-23T00:47:05.994Z,93.07
2023-06-23T00:49:37.282Z,92.69
2023-06-23T00:52:08.441Z,93.31
2023-06-23T00:54:37.754Z,92.54
2023-06-23T00:57:08.099Z,92.21
2023-06-23T00:59:36.721Z,92.30
2023-06-23T01:02:05.943Z,92.03
2023-06-23T01:04:36.307Z,91.77
2023-06-23T01:07:16.232Z,92.21
2023-06-23T01:09:56.593Z,91.07
2023-06-23T01:12:32.920Z,91.44
2023-06-23T01:15:07.937Z,91.18
2023-06-23T01:17:41.853Z,91.57
2023-06-23T01:20:22.166Z,91.29
2023-06-23T01:23:21.829Z,90.98
2023-06-23T01:25:56.477Z,91.64
2023-06-23T01:28:49.925Z,92.36
2023-06-23T01:31:27.171Z,92.20
2023-06-23T01:34:00.111Z,92.01
2023-06-23T01:36:35.042Z,92.17
2023-06-23T01:39:05.264Z,92.35
2023-06-23T01:41:40.067Z,92.38
2023-06-23T01:44:15.171Z,92.74
2023-06-23T01:46:46.520Z,92.70
2023-06-23T01:49:20.089Z,92.56
2023-06-23T01:51:51.175Z,92.42
2023-06-23T01:54:21.943Z,91.95
2023-06-23T01:56:52.277Z,91.12
2023-06-23T01:59:25.916Z,91.35
2023-06-23T02:01:56.787Z,90.62
2023-06-23T02:04:26.549Z,90.35
2023-06-23T02:06:57.261Z,91.27
2023-06-23T02:09:28.683Z,91.31
2023-06-23T02:11:59.645Z,90.35
2023-06-23T02:14:32.355Z,90.33
2023-06-23T02:17:01.667Z,90.47
2023-06-23T02:19:31.026Z,90.66
2023-06-23T02:21:59.954Z,90.37
2023-06-23T02:24:29.533Z,90.38
2023-06-23T02:26:58.511Z,89.98
2023-06-23T02:29:27.282Z,90.20
2023-06-23T02:31:57.409Z,90.23
2023-06-23T02:34:26.884Z,90.25
2023-06-23T02:37:00.585Z,89.67
2023-06-23T02:39:32.908Z,89.64
2023-06-23T02:42:03.618Z,89.82
2023-06-23T02:44:37.086Z,90.25
2023-06-23T02:47:13.316Z,89.99
2023-06-23T02:49:42.673Z,88.92
2023-06-23T02:52:12.772Z,88.92
2023-06-23T02:54:46.184Z,88.60
2023-06-23T02:57:18.126Z,88.17
2023-06-23T02:59:48.854Z,88.02
2023-06-23T03:02:23.365Z,88.07
2023-06-23T03:04:53.256Z,88.00
2023-06-23T03:07:22.035Z,88.32
2023-06-23T03:09:50.651Z,88.38
2023-06-23T03:12:19.394Z,88.36
2023-06-23T03:14:48.535Z,88.76
2023-06-23T03:17:27.713Z,89.11
2023-06-23T03:20:02.550Z,89.24
2023-06-23T03:22:34.967Z,88.20
2023-06-23T03:25:07.159Z,89.37
2023-06-23T03:27:39.075Z,89.84
2023-06-23T03:30:14.114Z,89.83
2023-06-23T03:32:48.954Z,89.99
2023-06-23T03:35:22.643Z,89.47
2023-06-23T03:37:54.566Z,89.33
2023-06-23T03:40:25.698Z,89.79
2023-06-23T03:42:58.526Z,89.35
2023-06-23T03:45:29.053Z,88.65
2023-06-23T03:48:04.110Z,89.03
2023-06-23T03:50:35.991Z,88.75
2023-06-23T03:53:07.063Z,88.56
2023-06-23T03:55:38.149Z,87.97
2023-06-23T03:58:09.088Z,87.37
2023-06-23T04:00:41.679Z,87.78
2023-06-23T04:03:14.425Z,87.96
2023-06-23T04:05:45.093Z,88.14
2023-06-23T04:08:15.174Z,87.58
2023-06-23T04:10:45.850Z,87.90
2023-06-23T04:13:16.244Z,87.66
2023-06-23T04:15:46.795Z,86.39
2023-06-23T04:18:18.895Z,86.45
2023-06-23T04:20:48.881Z,87.01
2023-06-23T04:23:20.031Z,86.99
2023-06-23T04:25:51.433Z,86.93
2023-06-23T04:28:23.203Z,86.86
2023-06-23T04:30:52.753Z,87.09
2023-06-23T04:33:25.245Z,86.61
2023-06-23T04:36:01.565Z,87.07
2023-06-23T04:38:35.139Z,85.72
2023-06-23T04:41:08.328Z,85.93
2023-06-23T04:43:40.643Z,85.16
2023-06-23T04:46:15.289Z,85.78
2023-06-23T04:48:51.121Z,85.50
2023-06-23T04:51:23.521Z,84.28
2023-06-23T04:53:57.936Z,84.75
2023-06-23T04:56:32.903Z,85.08
2023-06-23T04:59:06.612Z,84.95
2023-06-23T05:01:36.815Z,85.34
2023-06-23T05:04:07.493Z,85.77
2023-06-23T05:06:38.842Z,85.90
2023-06-23T05:09:08.607Z,86.10
2023-06-23T05:11:38.059Z,86.44
2023-06-23T05:14:08.804Z,86.10
2023-06-23T05:16:38.833Z,85.89
2023-06-23T05:19:11.606Z,86.25
2023-06-23T05:21:42.048Z,86.08
2023-06-23T05:24:13.134Z,85.90
2023-06-23T05:26:43.588Z,85.75
2023-06-23T05:29:15.657Z,85.96
2023-06-23T05:31:46.116Z,85.90
2023-06-23T05:34:19.505Z,86.22
2023-06-23T05:36:50.193Z,85.40
2023-06-23T05:39:21.180Z,84.99
2023-06-23T05:41:49.859Z,84.41
2023-06-23T05:44:18.477Z,83.79
2023-06-23T05:46:48.613Z,84.26
2023-06-23T05:49:21.117Z,84.13
2023-06-23T05:51:55.601Z,84.03
2023-06-23T05:54:25.992Z,83.95
2023-06-23T05:56:59.811Z,83.71
2023-06-23T05:59:34.495Z,83.55
2023-06-23T06:02:06.221Z,83.63
2023-06-23T06:04:41.667Z,83.70
2023-06-23T06:07:12.682Z,83.79
2023-06-23T06:09:41.867Z,83.74
2023-06-23T06:12:12.166Z,83.28
2023-06-23T06:14:42.178Z,82.48
2023-06-23T06:17:12.934Z,82.87
2023-06-23T06:19:44.354Z,82.30
2023-06-23T06:22:18.210Z,82.16
2023-06-23T06:24:48.499Z,81.70
2023-06-23T06:27:18.486Z,82.15
2023-06-23T06:29:48.093Z,81.61
2023-06-23T06:32:18.378Z,81.61
2023-06-23T06:34:49.509Z,81.63
2023-06-23T06:37:20.373Z,81.51
2023-06-23T06:39:49.873Z,81.39
2023-06-23T06:42:18.418Z,80.24
2023-06-23T06:44:47.268Z,79.00
2023-06-23T06:47:18.315Z,79.23
2023-06-23T06:49:49.580Z,78.41
2023-06-23T06:52:19.181Z,79.25
2023-06-23T06:54:47.969Z,79.56
2023-06-23T06:57:17.274Z,79.27
2023-06-23T06:59:45.834Z,79.44
2023-06-23T07:02:15.241Z,78.87
2023-06-23T07:04:44.623Z,77.75
2023-06-23T07:07:17.405Z,77.28
2023-06-23T07:09:46.039Z,76.85
2023-06-23T07:12:14.297Z,76.73
2023-06-23T07:14:42.928Z,76.57
2023-06-23T07:17:11.258Z,76.87
2023-06-23T07:19:41.775Z,76.46
2023-06-23T07:22:10.738Z,76.21
2023-06-23T07:24:40.631Z,74.94
2023-06-23T07:27:09.725Z,74.35
2023-06-23T07:29:38.339Z,74.79
2023-06-23T07:32:09.181Z,74.32
2023-06-23T07:34:37.946Z,73.96
2023-06-23T07:37:07.026Z,73.69
2023-06-23T07:39:35.377Z,73.38
2023-06-23T07:42:05.912Z,72.44
2023-06-23T07:44:34.535Z,72.52
2023-06-23T07:47:03.237Z,72.70
2023-06-23T07:49:32.046Z,73.02
2023-06-23T07:52:01.561Z,72.19
2023-06-23T07:54:30.645Z,71.57
2023-06-23T07:56:59.387Z,71.00
2023-06-23T07:59:29.320Z,70.62
2023-06-23T08:01:58.076Z,70.32
2023-06-23T08:04:26.790Z,68.78
2023-06-23T08:06:55.666Z,67.31
2023-06-23T08:09:24.250Z,66.20
2023-06-23T08:11:52.794Z,66.57
2023-06-23T08:14:21.505Z,65.50
2023-06-23T08:16:51.487Z,63.84
2023-06-23T08:19:23.109Z,63.90
2023-06-23T08:21:51.524Z,64.03
2023-06-23T08:24:20.327Z,65.49
2023-06-23T08:26:48.926Z,64.51
2023-06-23T08:29:17.544Z,62.75
2023-06-23T08:31:46.519Z,61.40
2023-06-23T08:34:19.464Z,60.25
2023-06-23T08:36:48.110Z,59.52
2023-06-23T08:39:16.431Z,58.88
2023-06-23T08:41:47.212Z,58.28
2023-06-23T08:44:17.769Z,59.21
2023-06-23T08:47:04.846Z,59.64
2023-06-23T08:49:41.743Z,60.54
2023-06-23T08:52:12.557Z,60.12
2023-06-23T08:54:41.405Z,59.61
2023-06-23T08:57:10.130Z,59.64
2023-06-23T08:59:38.729Z,60.01
2023-06-23T09:02:07.917Z,59.91
2023-06-23T09:04:37.964Z,60.07
2023-06-23T09:07:07.372Z,59.80
2023-06-23T09:09:35.944Z,59.75
2023-06-23T09:12:05.003Z,59.88
2023-06-23T09:14:35.639Z,60.22
2023-06-23T09:17:04.106Z,60.31
2023-06-23T09:19:35.006Z,59.76
2023-06-23T09:22:07.903Z,59.90
2023-06-23T09:24:44.880Z,60.37
2023-06-23T09:27:13.787Z,59.60
2023-06-23T09:29:42.046Z,58.77
2023-06-23T09:32:13.169Z,57.04
2023-06-23T09:34:42.238Z,56.72
2023-06-23T09:37:13.866Z,56.13
2023-06-23T09:39:47.340Z,55.24
2023-06-23T09:42:15.929Z,55.03
2023-06-23T09:44:49.753Z,54.21
2023-06-23T09:47:20.652Z,53.69
2023-06-23T09:49:50.772Z,52.69
2023-06-23T09:52:26.274Z,52.56
2023-06-23T09:54:56.493Z,52.51
2023-06-23T09:57:25.218Z,52.64
2023-06-23T09:59:55.306Z,51.76
2023-06-23T10:02:27.007Z,51.43
2023-06-23T10:05:01.500Z,51.04
2023-06-23T10:07:32.602Z,50.60
2023-06-23T10:10:16.890Z,50.37
2023-06-23T10:12:50.573Z,49.70
2023-06-23T10:15:19.537Z,50.08
2023-06-23T10:17:48.630Z,50.29
2023-06-23T10:20:17.533Z,49.94
2023-06-23T10:22:48.518Z,49.08
2023-06-23T10:25:17.495Z,49.78
2023-06-23T10:27:47.590Z,50.33
2023-06-23T10:30:19.445Z,49.98
2023-06-23T10:32:55.241Z,50.05
2023-06-23T10:35:25.268Z,48.70
2023-06-23T10:38:04.450Z,48.37
2023-06-23T10:40:40.116Z,47.79
2023-06-23T10:43:09.920Z,47.92
2023-06-23T10:45:39.673Z,47.30
2023-06-23T10:48:09.204Z,47.01
2023-06-23T10:50:39.726Z,46.10
2023-06-23T10:53:16.687Z,46.33
2023-06-23T10:56:03.063Z,45.19
2023-06-23T10:58:50.554Z,44.48
2023-06-23T11:01:19.248Z,43.70
2023-06-23T11:03:51.931Z,43.55
2023-06-23T11:06:29.816Z,43.22
2023-06-23T11:09:00.337Z,43.91
2023-06-23T11:11:36.450Z,44.50
2023-06-23T11:14:05.039Z,44.35
2023-06-23T11:16:35.782Z,44.03
2023-06-23T11:19:06.039Z,43.99
2023-06-23T11:21:41.098Z,43.72
2023-06-23T11:24:16.339Z,43.56
2023-06-23T11:26:46.636Z,43.12
2023-06-23T11:29:17.654Z,43.03
2023-06-23T11:32:20.411Z,43.44
2023-06-23T11:34:53.482Z,44.29
2023-06-23T11:37:23.357Z,44.17
2023-06-23T11:39:56.056Z,43.19
2023-06-23T11:42:25.092Z,42.44
2023-06-23T11:44:57.997Z,42.28
2023-06-23T11:47:28.590Z,42.10
2023-06-23T11:50:03.002Z,41.77
2023-06-23T11:52:31.566Z,42.23
2023-06-23T11:55:01.355Z,41.86
2023-06-23T11:57:32.327Z,42.00
2023-06-23T12:00:01.844Z,42.15
2023-06-23T12:02:30.529Z,41.68
2023-06-23T12:05:00.646Z,41.22
2023-06-23T12:07:32.205Z,41.07
2023-06-23T12:10:03.493Z,41.15
2023-06-23T12:12:32.165Z,41.52
2023-06-23T12:15:01.467Z,41.48
2023-06-23T12:17:30.186Z,41.91
2023-06-23T12:19:59.885Z,41.84
2023-06-23T12:22:38.266Z,42.74
2023-06-23T12:25:09.522Z,42.14
2023-06-23T12:27:39.887Z,41.46
2023-06-23T12:30:18.127Z,40.91
2023-06-23T12:32:46.850Z,40.17
2023-06-23T12:35:19.753Z,39.21
2023-06-23T12:37:50.553Z,38.58
2023-06-23T12:40:37.073Z,38.36
2023-06-23T12:43:07.845Z,37.67
2023-06-23T12:45:39.233Z,37.10
2023-06-23T12:48:11.209Z,37.49
2023-06-23T12:50:43.288Z,36.64
2023-06-23T12:53:11.946Z,36.25
2023-06-23T12:55:41.913Z,36.32
2023-06-23T12:58:10.383Z,36.56
2023-06-23T13:00:38.908Z,37.70
2023-06-23T13:03:09.690Z,38.23
2023-06-23T13:05:40.390Z,38.84
2023-06-23T13:08:10.002Z,39.18
2023-06-23T13:10:39.014Z,39.40
2023-06-23T13:13:08.683Z,39.82
2023-06-23T13:15:37.460Z,38.95
2023-06-23T13:18:07.542Z,38.23
2023-06-23T13:20:36.488Z,37.87
2023-06-23T13:23:05.222Z,38.04
2023-06-23T13:25:34.348Z,38.28
2023-06-23T13:28:03.110Z,38.92
2023-06-23T13:30:33.072Z,39.25
2023-06-23T13:33:01.778Z,39.17
2023-06-23T13:35:30.531Z,38.06
2023-06-23T13:37:59.278Z,37.07
2023-06-23T13:40:28.274Z,36.25
2023-06-23T13:42:56.976Z,36.02
2023-06-23T13:45:27.092Z,35.74
2023-06-23T13:47:57.170Z,34.97
2023-06-23T13:50:28.210Z,34.50
2023-06-23T13:52:56.865Z,34.48
2023-06-23T13:55:25.420Z,35.24
2023-06-23T13:57:54.259Z,35.97
2023-06-23T14:00:24.082Z,35.62
2023-06-23T14:02:52.845Z,34.33
2023-06-23T14:05:22.538Z,33.70
2023-06-23T14:07:51.218Z,34.47
2023-06-23T14:10:19.556Z,34.21
2023-06-23T14:12:48.243Z,33.45
2023-06-23T14:15:16.820Z,32.06
2023-06-23T14:17:47.122Z,32.94
2023-06-23T14:20:18.183Z,33.57
2023-06-23T14:22:48.220Z,34.32
2023-06-23T14:25:16.971Z,35.08
2023-06-23T14:27:45.506Z,35.79
2023-06-23T14:30:15.142Z,35.53
2023-06-23T14:32:49.671Z,36.26
2023-06-23T14:35:19.160Z,36.18
2023-06-23T14:37:48.843Z,35.87
2023-06-23T14:40:17.540Z,35.59
2023-06-23T14:42:47.815Z,34.81
2023-06-23T14:45:17.093Z,33.78
2023-06-23T14:47:45.612Z,33.92
2023-06-23T14:50:14.391Z,33.33
2023-06-23T14:52:43.030Z,32.76
2023-06-23T14:55:12.749Z,31.49
2023-06-23T14:57:41.316Z,31.51
2023-06-23T15:00:12.087Z,32.62
2023-06-23T15:02:40.839Z,33.86
2023-06-23T15:05:10.366Z,34.58
2023-06-23T15:07:38.969Z,35.67
2023-06-23T15:10:08.353Z,36.12
2023-06-23T15:12:38.046Z,36.01
2023-06-23T15:15:08.438Z,35.16
2023-06-23T15:17:37.327Z,33.82
2023-06-23T15:20:06.960Z,32.93
2023-06-23T15:22:35.596Z,31.68
2023-06-23T15:25:04.562Z,31.00
2023-06-23T15:27:33.173Z,30.46
2023-06-23T15:30:03.550Z,30.37
2023-06-23T15:32:33.728Z,29.10
2023-06-23T15:35:02.758Z,28.84
2023-06-23T15:37:31.384Z,29.45
2023-06-23T15:40:00.463Z,29.04
2023-06-23T15:42:29.113Z,30.24
2023-06-23T15:44:58.043Z,31.42
2023-06-23T15:47:27.803Z,30.96
2023-06-23T15:49:56.451Z,30.95
2023-06-23T15:52:25.128Z,31.52
2023-06-23T15:54:53.740Z,31.44
2023-06-23T15:57:23.528Z,31.09
2023-06-23T15:59:52.421Z,30.58
2023-06-23T16:02:26.340Z,32.03
2023-06-23T16:04:56.411Z,33.90
2023-06-23T16:07:25.254Z,37.05
2023-06-23T16:09:54.963Z,37.36
2023-06-23T16:12:23.542Z,36.32
2023-06-23T16:14:52.109Z,35.66
2023-06-23T16:17:20.734Z,35.38
2023-06-23T16:19:49.286Z,35.01
2023-06-23T16:22:20.469Z,35.27
2023-06-23T16:24:49.032Z,35.18
2023-06-23T16:27:17.905Z,35.38
2023-06-23T16:29:46.609Z,35.58
2023-06-23T16:32:15.278Z,35.59
2023-06-23T16:34:43.917Z,35.49
2023-06-23T16:37:12.468Z,35.86
2023-06-23T16:39:42.139Z,35.91
2023-06-23T16:42:11.048Z,35.86
2023-06-23T16:44:41.908Z,35.51
2023-06-23T16:47:11.520Z,35.38
2023-06-23T16:49:39.926Z,34.99
2023-06-23T16:52:10.730Z,35.03
2023-06-23T16:54:42.070Z,34.70
2023-06-23T16:57:14.053Z,35.15
2023-06-23T16:59:42.899Z,34.59
2023-06-23T17:02:11.541Z,34.32
2023-06-23T17:04:40.132Z,34.08
2023-06-23T17:07:10.530Z,33.75
2023-06-23T17:09:41.043Z,33.51
2023-06-23T17:12:18.685Z,33.79
2023-06-23T17:14:48.763Z,33.75
2023-06-23T17:17:17.801Z,33.77
2023-06-23T17:19:46.573Z,34.33
2023-06-23T17:22:16.045Z,33.97
2023-06-23T17:24:47.164Z,34.57
2023-06-23T17:27:15.815Z,35.30
2023-06-23T17:29:44.376Z,35.94
2023-06-23T17:32:13.260Z,36.20
2023-06-23T17:34:41.688Z,36.83
2023-06-23T17:37:10.336Z,37.78
2023-06-23T17:39:38.893Z,37.81
2023-06-23T17:42:10.947Z,38.27
2023-06-23T17:44:39.609Z,38.64
2023-06-23T17:47:08.247Z,38.99
2023-06-23T17:49:37.197Z,39.44
2023-06-23T17:52:06.677Z,39.98
2023-06-23T17:54:36.037Z,40.39
2023-06-23T17:57:05.067Z,40.67
2023-06-23T17:59:35.115Z,40.74
2023-06-23T18:02:04.024Z,40.96
2023-06-23T18:04:32.733Z,41.16
2023-06-23T18:07:01.859Z,41.46
2023-06-23T18:09:30.156Z,41.60
2023-06-23T18:11:58.707Z,41.84
2023-06-23T18:14:27.274Z,41.86
2023-06-23T18:16:56.905Z,42.02
2023-06-23T18:19:25.848Z,42.30
2023-06-23T18:21:55.239Z,42.12
2023-06-23T18:24:24.217Z,42.27
2023-06-23T18:26:53.220Z,42.28
2023-06-23T18:29:21.894Z,42.38
2023-06-23T18:31:55.488Z,42.66
2023-06-23T18:34:25.150Z,42.98
2023-06-23T18:36:53.661Z,42.98
2023-06-23T18:39:22.606Z,43.17
2023-06-23T18:41:51.201Z,43.58
2023-06-23T18:44:20.691Z,43.50
2023-06-23T18:46:49.527Z,43.72
2023-06-23T18:49:18.103Z,44.08
2023-06-23T18:51:47.682Z,43.86
2023-06-23T18:54:16.300Z,44.13
2023-06-23T18:56:44.617Z,43.97
2023-06-23T18:59:13.192Z,44.21
2023-06-23T19:01:41.734Z,44.29
2023-06-23T19:04:10.399Z,44.76
2023-06-23T19:06:38.850Z,44.68
2023-06-23T19:09:09.006Z,45.10
2023-06-23T19:11:37.951Z,44.96
2023-06-23T19:14:06.542Z,45.23
2023-06-23T19:16:35.244Z,45.52
2023-06-23T19:19:04.329Z,45.21
2023-06-23T19:21:33.164Z,45.36
2023-06-23T19:24:02.458Z,45.60
2023-06-23T19:26:32.932Z,46.07
2023-06-23T19:29:01.838Z,46.40
2023-06-23T19:31:30.468Z,46.26
2023-06-23T19:33:59.058Z,46.46
2023-06-23T19:36:27.827Z,46.66
2023-06-23T19:38:57.323Z,46.82
2023-06-23T19:41:25.892Z,47.02
2023-06-23T19:43:55.824Z,47.52
2023-06-23T19:46:24.646Z,47.54
2023-06-23T19:48:55.455Z,47.95
2023-06-23T19:51:24.124Z,48.02
2023-06-23T19:53:52.399Z,48.57
2023-06-23T19:56:21.479Z,48.43
2023-06-23T19:58:50.084Z,48.87
2023-06-23T20:01:20.082Z,48.93
2023-06-23T20:03:49.240Z,49.14
2023-06-23T20:06:19.176Z,49.10
2023-06-23T20:08:47.905Z,49.42
2023-06-23T20:11:16.498Z,49.37
2023-06-23T20:13:45.066Z,49.30
2023-06-23T20:16:13.869Z,49.61
2023-06-23T20:18:43.886Z,49.85
2023-06-23T20:21:12.492Z,49.82
2023-06-23T20:23:41.100Z,49.96
2023-06-23T20:26:09.759Z,50.38
2023-06-23T20:28:38.336Z,50.33
2023-06-23T20:31:06.947Z,50.51
2023-06-23T20:33:35.542Z,50.65
2023-06-23T20:36:05.586Z,51.04
2023-06-23T20:38:34.677Z,51.19
2023-06-23T20:41:03.413Z,51.45
2023-06-23T20:43:32.074Z,51.30
2023-06-23T20:46:00.855Z,51.68
2023-06-23T20:48:29.294Z,51.67
2023-06-23T20:50:58.461Z,52.00
2023-06-23T20:53:29.586Z,52.33
2023-06-23T20:55:58.415Z,52.27
2023-06-23T20:58:26.985Z,52.69
2023-06-23T21:00:55.900Z,52.89
2023-06-23T21:03:24.589Z,52.96
2023-06-23T21:05:53.498Z,53.16
2023-06-23T21:08:22.102Z,53.39
2023-06-23T21:10:51.834Z,53.27
2023-06-23T21:13:20.408Z,53.64
2023-06-23T21:15:49.496Z,53.96
2023-06-23T21:18:18.284Z,54.01
2023-06-23T21:20:46.956Z,54.28
2023-06-23T21:23:15.609Z,54.33
2023-06-23T21:25:44.949Z,54.40
2023-06-23T21:28:14.638Z,54.61
2023-06-23T21:30:43.757Z,54.82
2023-06-23T21:33:12.341Z,54.81
2023-06-23T21:35:41.731Z,55.22
2023-06-23T21:38:10.514Z,55.43
2023-06-23T21:40:40.757Z,55.52
2023-06-23T21:43:10.637Z,55.85
2023-06-23T21:45:40.569Z,55.90
2023-06-23T21:48:08.842Z,56.24
2023-06-23T21:50:37.591Z,56.64
2023-06-23T21:53:06.201Z,56.87
2023-06-23T21:55:36.446Z,57.01
2023-06-23T21:58:07.780Z,57.17
2023-06-23T22:00:36.746Z,57.53
2023-06-23T22:03:06.846Z,57.58
2023-06-23T22:05:35.521Z,58.08
2023-06-23T22:08:04.083Z,58.60
2023-06-23T22:10:33.014Z,59.17
2023-06-23T22:13:02.020Z,59.44
2023-06-23T22:15:30.747Z,59.49
2023-06-23T22:17:59.491Z,59.62
2023-06-23T22:20:29.179Z,59.80
2023-06-23T22:22:57.988Z,59.67
2023-06-23T22:25:26.592Z,59.61
2023-06-23T22:27:55.056Z,59.83
2023-06-23T22:30:23.630Z,59.99
2023-06-23T22:32:52.342Z,59.87
2023-06-23T22:35:20.906Z,59.77
2023-06-23T22:37:51.045Z,60.05
2023-06-23T22:40:20.322Z,59.99
2023-06-23T22:42:49.143Z,60.14
2023-06-23T22:45:17.764Z,60.21
2023-06-23T22:47:46.362Z,60.39
2023-06-23T22:50:15.044Z,60.39
2023-06-23T22:52:43.878Z,60.41
2023-06-23T22:55:13.561Z,60.76
2023-06-23T22:57:41.920Z,60.95
2023-06-23T23:00:12.174Z,60.87
2023-06-23T23:02:41.193Z,60.79
2023-06-23T23:05:10.902Z,61.09
2023-06-23T23:07:39.523Z,61.41
2023-06-23T23:10:11.154Z,61.30
2023-06-23T23:12:40.986Z,61.63
2023-06-23T23:15:10.487Z,61.70
2023-06-23T23:17:39.144Z,61.63
2023-06-23T23:20:10.856Z,62.15
2023-06-23T23:22:39.508Z,62.34
2023-06-23T23:25:09.259Z,62.63
2023-06-23T23:27:38.729Z,63.09
2023-06-23T23:30:13.581Z,63.25
2023-06-23T23:32:43.113Z,63.68
2023-06-23T23:35:12.350Z,63.81
2023-06-23T23:37:41.260Z,63.97
2023-06-23T23:40:12.453Z,64.36
2023-06-23T23:42:41.858Z,64.65
2023-06-23T23:45:12.776Z,64.89
2023-06-23T23:47:42.089Z,65.04
2023-06-23T23:50:11.864Z,65.25
2023-06-23T23:52:41.051Z,65.78
2023-06-23T23:55:10.470Z,66.02
2023-06-23T23:57:39.186Z,66.16
